sensor_id;sensor_type;location;lat;lon;timestamp;P1;durP1;ratioP1;P2;durP2;ratioP2
38843;SDS011;24596;48.080;8.362;2023-02-11T00:01:47;24.33;;;10.30;;
38843;SDS011;24596;48.080;8.362;2023-02-11T00:04:12;20.67;;;9.25;;
38843;SDS011;24596;48.080;8.362;2023-02-11T00:06:37;18.80;;;9.02;;
38843;SDS011;24596;48.080;8.362;2023-02-11T00:09:02;20.85;;;9.52;;
38843;SDS011;24596;48.080;8.362;2023-02-11T00:11:28;22.17;;;9.30;;
38843;SDS011;24596;48.080;8.362;2023-02-11T00:13:57;18.73;;;8.85;;
38843;SDS011;24596;48.080;8.362;2023-02-11T00:16:23;21.23;;;9.27;;
38843;SDS011;24596;48.080;8.362;2023-02-11T00:18:48;20.85;;;9.27;;
38843;SDS011;24596;48.080;8.362;2023-02-11T00:21:18;19.15;;;8.52;;
38843;SDS011;24596;48.080;8.362;2023-02-11T00:23:44;20.35;;;8.93;;
38843;SDS011;24596;48.080;8.362;2023-02-11T00:26:13;19.77;;;8.60;;
38843;SDS011;24596;48.080;8.362;2023-02-11T00:28:39;23.67;;;9.55;;
38843;SDS011;24596;48.080;8.362;2023-02-11T00:31:04;21.38;;;9.57;;
38843;SDS011;24596;48.080;8.362;2023-02-11T00:33:29;22.25;;;9.48;;
38843;SDS011;24596;48.080;8.362;2023-02-11T00:35:55;20.77;;;9.82;;
38843;SDS011;24596;48.080;8.362;2023-02-11T00:38:20;20.15;;;9.15;;
38843;SDS011;24596;48.080;8.362;2023-02-11T00:40:45;20.48;;;8.98;;
38843;SDS011;24596;48.080;8.362;2023-02-11T00:43:10;17.63;;;8.88;;
38843;SDS011;24596;48.080;8.362;2023-02-11T00:45:38;20.70;;;9.10;;
38843;SDS011;24596;48.080;8.362;2023-02-11T00:48:04;21.75;;;8.63;;
38843;SDS011;24596;48.080;8.362;2023-02-11T00:50:29;20.48;;;9.32;;
38843;SDS011;24596;48.080;8.362;2023-02-11T00:52:54;22.00;;;9.27;;
38843;SDS011;24596;48.080;8.362;2023-02-11T00:55:19;21.58;;;9.77;;
38843;SDS011;24596;48.080;8.362;2023-02-11T00:57:45;23.42;;;9.57;;
38843;SDS011;24596;48.080;8.362;2023-02-11T01:00:10;21.85;;;10.10;;
38843;SDS011;24596;48.080;8.362;2023-02-11T01:02:37;23.27;;;10.43;;
38843;SDS011;24596;48.080;8.362;2023-02-11T01:05:02;23.13;;;10.32;;
38843;SDS011;24596;48.080;8.362;2023-02-11T01:07:27;21.15;;;9.55;;
38843;SDS011;24596;48.080;8.362;2023-02-11T01:09:53;19.83;;;9.60;;
38843;SDS011;24596;48.080;8.362;2023-02-11T01:12:18;24.45;;;9.48;;
38843;SDS011;24596;48.080;8.362;2023-02-11T01:14:43;22.55;;;9.77;;
38843;SDS011;24596;48.080;8.362;2023-02-11T01:17:09;21.83;;;9.63;;
38843;SDS011;24596;48.080;8.362;2023-02-11T01:19:35;21.63;;;10.93;;
38843;SDS011;24596;48.080;8.362;2023-02-11T01:22:01;21.95;;;10.23;;
38843;SDS011;24596;48.080;8.362;2023-02-11T01:24:26;20.65;;;9.40;;
38843;SDS011;24596;48.080;8.362;2023-02-11T01:26:51;21.35;;;9.73;;
38843;SDS011;24596;48.080;8.362;2023-02-11T01:29:16;20.98;;;9.48;;
38843;SDS011;24596;48.080;8.362;2023-02-11T01:31:41;19.80;;;9.00;;
38843;SDS011;24596;48.080;8.362;2023-02-11T01:34:07;25.30;;;10.70;;
38843;SDS011;24596;48.080;8.362;2023-02-11T01:36:32;21.17;;;10.50;;
38843;SDS011;24596;48.080;8.362;2023-02-11T01:38:57;20.67;;;9.13;;
38843;SDS011;24596;48.080;8.362;2023-02-11T01:41:22;20.88;;;9.20;;
38843;SDS011;24596;48.080;8.362;2023-02-11T01:43:48;20.02;;;9.38;;
38843;SDS011;24596;48.080;8.362;2023-02-11T01:46:19;22.23;;;9.70;;
38843;SDS011;24596;48.080;8.362;2023-02-11T01:48:48;23.52;;;9.25;;
38843;SDS011;24596;48.080;8.362;2023-02-11T01:51:21;20.15;;;9.35;;
38843;SDS011;24596;48.080;8.362;2023-02-11T01:53:47;20.02;;;9.95;;
38843;SDS011;24596;48.080;8.362;2023-02-11T01:56:32;22.88;;;10.23;;
38843;SDS011;24596;48.080;8.362;2023-02-11T01:59:19;24.20;;;9.98;;
38843;SDS011;24596;48.080;8.362;2023-02-11T02:01:48;23.30;;;10.07;;
38843;SDS011;24596;48.080;8.362;2023-02-11T02:04:15;25.10;;;11.43;;
38843;SDS011;24596;48.080;8.362;2023-02-11T02:06:48;24.65;;;9.80;;
38843;SDS011;24596;48.080;8.362;2023-02-11T02:09:24;18.15;;;9.15;;
38843;SDS011;24596;48.080;8.362;2023-02-11T02:11:51;24.85;;;9.35;;
38843;SDS011;24596;48.080;8.362;2023-02-11T02:14:16;22.50;;;10.60;;
38843;SDS011;24596;48.080;8.362;2023-02-11T02:16:41;22.55;;;9.48;;
38843;SDS011;24596;48.080;8.362;2023-02-11T02:32:47;22.13;;;9.83;;
38843;SDS011;24596;48.080;8.362;2023-02-11T02:40:30;26.97;;;9.97;;
38843;SDS011;24596;48.080;8.362;2023-02-11T02:42:56;22.65;;;9.95;;
38843;SDS011;24596;48.080;8.362;2023-02-11T02:45:22;24.38;;;10.07;;
38843;SDS011;24596;48.080;8.362;2023-02-11T02:47:47;25.07;;;10.23;;
38843;SDS011;24596;48.080;8.362;2023-02-11T02:50:13;22.23;;;9.25;;
38843;SDS011;24596;48.080;8.362;2023-02-11T03:10:16;20.77;;;9.63;;
38843;SDS011;24596;48.080;8.362;2023-02-11T03:12:43;21.45;;;9.93;;
38843;SDS011;24596;48.080;8.362;2023-02-11T03:15:09;22.45;;;10.10;;
38843;SDS011;24596;48.080;8.362;2023-02-11T03:17:35;24.87;;;10.63;;
38843;SDS011;24596;48.080;8.362;2023-02-11T03:20:03;23.80;;;10.10;;
38843;SDS011;24596;48.080;8.362;2023-02-11T03:22:34;25.30;;;10.40;;
38843;SDS011;24596;48.080;8.362;2023-02-11T03:25:01;22.90;;;9.82;;
38843;SDS011;24596;48.080;8.362;2023-02-11T03:30:29;24.92;;;10.05;;
38843;SDS011;24596;48.080;8.362;2023-02-11T03:33:00;20.35;;;9.80;;
38843;SDS011;24596;48.080;8.362;2023-02-11T03:35:27;24.42;;;10.73;;
38843;SDS011;24596;48.080;8.362;2023-02-11T03:37:57;24.05;;;10.32;;
38843;SDS011;24596;48.080;8.362;2023-02-11T03:40:24;26.92;;;11.07;;
38843;SDS011;24596;48.080;8.362;2023-02-11T03:43:07;25.45;;;10.73;;
38843;SDS011;24596;48.080;8.362;2023-02-11T03:48:02;24.27;;;10.68;;
38843;SDS011;24596;48.080;8.362;2023-02-11T03:50:29;27.15;;;10.93;;
38843;SDS011;24596;48.080;8.362;2023-02-11T03:52:56;28.13;;;10.98;;
38843;SDS011;24596;48.080;8.362;2023-02-11T03:55:22;27.65;;;11.88;;
38843;SDS011;24596;48.080;8.362;2023-02-11T03:57:50;30.73;;;13.27;;
38843;SDS011;24596;48.080;8.362;2023-02-11T04:00:18;26.45;;;11.35;;
38843;SDS011;24596;48.080;8.362;2023-02-11T04:02:44;30.47;;;12.13;;
38843;SDS011;24596;48.080;8.362;2023-02-11T04:05:10;28.90;;;11.87;;
38843;SDS011;24596;48.080;8.362;2023-02-11T04:07:35;33.10;;;11.50;;
38843;SDS011;24596;48.080;8.362;2023-02-11T04:10:00;24.80;;;12.57;;
38843;SDS011;24596;48.080;8.362;2023-02-11T04:12:26;28.73;;;13.45;;
38843;SDS011;24596;48.080;8.362;2023-02-11T04:14:54;27.20;;;12.50;;
38843;SDS011;24596;48.080;8.362;2023-02-11T04:17:19;26.47;;;12.17;;
38843;SDS011;24596;48.080;8.362;2023-02-11T04:19:45;23.97;;;10.13;;
38843;SDS011;24596;48.080;8.362;2023-02-11T04:22:10;25.57;;;10.63;;
38843;SDS011;24596;48.080;8.362;2023-02-11T04:24:35;26.17;;;10.75;;
38843;SDS011;24596;48.080;8.362;2023-02-11T04:27:00;29.50;;;11.10;;
38843;SDS011;24596;48.080;8.362;2023-02-11T04:29:26;29.02;;;11.15;;
38843;SDS011;24596;48.080;8.362;2023-02-11T04:31:52;27.57;;;11.37;;
38843;SDS011;24596;48.080;8.362;2023-02-11T04:34:18;25.05;;;11.00;;
38843;SDS011;24596;48.080;8.362;2023-02-11T04:36:43;24.63;;;10.85;;
38843;SDS011;24596;48.080;8.362;2023-02-11T04:39:08;26.80;;;12.02;;
38843;SDS011;24596;48.080;8.362;2023-02-11T04:41:33;26.10;;;11.27;;
38843;SDS011;24596;48.080;8.362;2023-02-11T04:43:59;26.83;;;12.00;;
38843;SDS011;24596;48.080;8.362;2023-02-11T04:46:24;25.70;;;11.52;;
38843;SDS011;24596;48.080;8.362;2023-02-11T04:48:49;23.98;;;11.10;;
38843;SDS011;24596;48.080;8.362;2023-02-11T04:51:14;27.67;;;11.32;;
38843;SDS011;24596;48.080;8.362;2023-02-11T04:53:40;29.77;;;13.40;;
38843;SDS011;24596;48.080;8.362;2023-02-11T04:56:05;27.05;;;11.93;;
38843;SDS011;24596;48.080;8.362;2023-02-11T04:58:30;28.15;;;11.13;;
38843;SDS011;24596;48.080;8.362;2023-02-11T05:01:03;33.72;;;12.77;;
38843;SDS011;24596;48.080;8.362;2023-02-11T05:03:29;28.20;;;12.00;;
38843;SDS011;24596;48.080;8.362;2023-02-11T05:05:54;27.17;;;11.75;;
38843;SDS011;24596;48.080;8.362;2023-02-11T05:08:20;27.60;;;11.45;;
38843;SDS011;24596;48.080;8.362;2023-02-11T05:10:45;26.10;;;10.75;;
38843;SDS011;24596;48.080;8.362;2023-02-11T05:13:11;26.73;;;12.02;;
38843;SDS011;24596;48.080;8.362;2023-02-11T05:15:36;24.45;;;11.57;;
38843;SDS011;24596;48.080;8.362;2023-02-11T05:18:02;25.20;;;10.18;;
38843;SDS011;24596;48.080;8.362;2023-02-11T05:20:27;27.20;;;11.70;;
38843;SDS011;24596;48.080;8.362;2023-02-11T05:22:52;25.40;;;11.43;;
38843;SDS011;24596;48.080;8.362;2023-02-11T05:25:17;28.67;;;11.40;;
38843;SDS011;24596;48.080;8.362;2023-02-11T05:27:44;25.48;;;11.20;;
38843;SDS011;24596;48.080;8.362;2023-02-11T05:30:09;26.77;;;11.80;;
38843;SDS011;24596;48.080;8.362;2023-02-11T05:32:34;24.33;;;10.88;;
38843;SDS011;24596;48.080;8.362;2023-02-11T05:35:00;27.17;;;11.57;;
38843;SDS011;24596;48.080;8.362;2023-02-11T05:37:25;28.85;;;11.82;;
38843;SDS011;24596;48.080;8.362;2023-02-11T05:39:50;27.85;;;12.25;;
38843;SDS011;24596;48.080;8.362;2023-02-11T05:42:15;27.83;;;11.82;;
38843;SDS011;24596;48.080;8.362;2023-02-11T05:44:40;23.77;;;10.15;;
38843;SDS011;24596;48.080;8.362;2023-02-11T05:47:06;29.55;;;12.07;;
38843;SDS011;24596;48.080;8.362;2023-02-11T05:49:32;25.10;;;11.48;;
38843;SDS011;24596;48.080;8.362;2023-02-11T05:51:58;23.70;;;11.40;;
38843;SDS011;24596;48.080;8.362;2023-02-11T05:54:23;26.85;;;12.20;;
38843;SDS011;24596;48.080;8.362;2023-02-11T05:56:48;25.30;;;11.82;;
38843;SDS011;24596;48.080;8.362;2023-02-11T05:59:13;27.95;;;12.48;;
38843;SDS011;24596;48.080;8.362;2023-02-11T06:01:39;30.02;;;11.35;;
38843;SDS011;24596;48.080;8.362;2023-02-11T06:04:04;28.92;;;11.90;;
38843;SDS011;24596;48.080;8.362;2023-02-11T06:06:29;30.65;;;13.20;;
38843;SDS011;24596;48.080;8.362;2023-02-11T06:08:55;27.65;;;12.75;;
38843;SDS011;24596;48.080;8.362;2023-02-11T06:11:20;31.17;;;12.70;;
38843;SDS011;24596;48.080;8.362;2023-02-11T06:13:45;37.47;;;14.20;;
38843;SDS011;24596;48.080;8.362;2023-02-11T06:16:10;36.47;;;13.77;;
38843;SDS011;24596;48.080;8.362;2023-02-11T06:18:36;31.77;;;12.10;;
38843;SDS011;24596;48.080;8.362;2023-02-11T06:21:04;33.55;;;13.70;;
38843;SDS011;24596;48.080;8.362;2023-02-11T06:23:30;33.08;;;13.73;;
38843;SDS011;24596;48.080;8.362;2023-02-11T06:25:59;32.05;;;13.80;;
38843;SDS011;24596;48.080;8.362;2023-02-11T06:28:25;33.15;;;14.95;;
38843;SDS011;24596;48.080;8.362;2023-02-11T06:30:50;29.02;;;13.60;;
38843;SDS011;24596;48.080;8.362;2023-02-11T06:33:15;35.72;;;15.73;;
38843;SDS011;24596;48.080;8.362;2023-02-11T06:35:40;32.75;;;13.88;;
38843;SDS011;24596;48.080;8.362;2023-02-11T06:38:05;35.85;;;14.73;;
38843;SDS011;24596;48.080;8.362;2023-02-11T06:40:31;35.08;;;15.05;;
38843;SDS011;24596;48.080;8.362;2023-02-11T06:42:56;31.60;;;13.85;;
38843;SDS011;24596;48.080;8.362;2023-02-11T06:45:21;30.73;;;14.13;;
38843;SDS011;24596;48.080;8.362;2023-02-11T06:47:46;33.45;;;13.77;;
38843;SDS011;24596;48.080;8.362;2023-02-11T06:50:12;34.88;;;16.20;;
38843;SDS011;24596;48.080;8.362;2023-02-11T06:52:38;36.83;;;16.27;;
38843;SDS011;24596;48.080;8.362;2023-02-11T06:55:03;33.72;;;13.15;;
38843;SDS011;24596;48.080;8.362;2023-02-11T06:57:29;33.83;;;14.07;;
38843;SDS011;24596;48.080;8.362;2023-02-11T06:59:54;30.10;;;13.63;;
38843;SDS011;24596;48.080;8.362;2023-02-11T07:02:19;36.92;;;15.65;;
38843;SDS011;24596;48.080;8.362;2023-02-11T07:04:45;35.85;;;15.85;;
38843;SDS011;24596;48.080;8.362;2023-02-11T07:07:10;31.33;;;13.45;;
38843;SDS011;24596;48.080;8.362;2023-02-11T07:09:35;39.20;;;15.40;;
38843;SDS011;24596;48.080;8.362;2023-02-11T07:12:00;34.28;;;15.73;;
38843;SDS011;24596;48.080;8.362;2023-02-11T07:14:25;36.97;;;14.85;;
38843;SDS011;24596;48.080;8.362;2023-02-11T07:16:51;34.20;;;14.85;;
38843;SDS011;24596;48.080;8.362;2023-02-11T07:19:16;35.42;;;15.57;;
38843;SDS011;24596;48.080;8.362;2023-02-11T07:21:41;33.58;;;15.60;;
38843;SDS011;24596;48.080;8.362;2023-02-11T07:24:07;33.00;;;15.35;;
38843;SDS011;24596;48.080;8.362;2023-02-11T07:26:32;44.95;;;21.85;;
38843;SDS011;24596;48.080;8.362;2023-02-11T07:28:58;59.53;;;27.88;;
38843;SDS011;24596;48.080;8.362;2023-02-11T07:31:25;46.97;;;22.90;;
38843;SDS011;24596;48.080;8.362;2023-02-11T07:33:52;41.58;;;20.45;;
38843;SDS011;24596;48.080;8.362;2023-02-11T07:36:17;35.63;;;15.07;;
38843;SDS011;24596;48.080;8.362;2023-02-11T07:38:42;31.85;;;15.55;;
38843;SDS011;24596;48.080;8.362;2023-02-11T07:41:09;33.47;;;16.45;;
38843;SDS011;24596;48.080;8.362;2023-02-11T07:43:35;33.40;;;15.10;;
38843;SDS011;24596;48.080;8.362;2023-02-11T07:46:04;31.17;;;13.98;;
38843;SDS011;24596;48.080;8.362;2023-02-11T07:48:30;30.98;;;14.73;;
38843;SDS011;24596;48.080;8.362;2023-02-11T07:50:55;28.55;;;14.27;;
38843;SDS011;24596;48.080;8.362;2023-02-11T07:53:20;31.60;;;13.95;;
38843;SDS011;24596;48.080;8.362;2023-02-11T07:55:46;31.00;;;14.20;;
38843;SDS011;24596;48.080;8.362;2023-02-11T07:58:11;28.50;;;14.48;;
38843;SDS011;24596;48.080;8.362;2023-02-11T08:00:36;33.88;;;14.73;;
38843;SDS011;24596;48.080;8.362;2023-02-11T08:03:01;35.45;;;15.85;;
38843;SDS011;24596;48.080;8.362;2023-02-11T08:05:27;36.10;;;17.23;;
38843;SDS011;24596;48.080;8.362;2023-02-11T08:07:53;38.03;;;19.55;;
38843;SDS011;24596;48.080;8.362;2023-02-11T08:10:18;39.65;;;18.73;;
38843;SDS011;24596;48.080;8.362;2023-02-11T08:12:44;40.97;;;19.92;;
38843;SDS011;24596;48.080;8.362;2023-02-11T08:15:09;45.28;;;20.95;;
38843;SDS011;24596;48.080;8.362;2023-02-11T08:17:35;43.17;;;19.10;;
38843;SDS011;24596;48.080;8.362;2023-02-11T08:20:00;32.08;;;16.30;;
38843;SDS011;24596;48.080;8.362;2023-02-11T08:22:26;34.55;;;18.02;;
38843;SDS011;24596;48.080;8.362;2023-02-11T08:24:51;38.75;;;18.13;;
38843;SDS011;24596;48.080;8.362;2023-02-11T08:27:16;35.15;;;16.20;;
38843;SDS011;24596;48.080;8.362;2023-02-11T08:29:41;35.95;;;17.85;;
38843;SDS011;24596;48.080;8.362;2023-02-11T08:32:07;38.92;;;19.30;;
38843;SDS011;24596;48.080;8.362;2023-02-11T08:34:32;33.90;;;17.67;;
38843;SDS011;24596;48.080;8.362;2023-02-11T08:36:58;32.28;;;15.68;;
38843;SDS011;24596;48.080;8.362;2023-02-11T08:39:26;29.02;;;13.73;;
38843;SDS011;24596;48.080;8.362;2023-02-11T08:41:52;30.58;;;15.00;;
38843;SDS011;24596;48.080;8.362;2023-02-11T08:44:18;24.88;;;12.93;;
38843;SDS011;24596;48.080;8.362;2023-02-11T08:46:44;28.38;;;12.93;;
38843;SDS011;24596;48.080;8.362;2023-02-11T08:49:09;26.83;;;13.63;;
38843;SDS011;24596;48.080;8.362;2023-02-11T08:51:34;30.80;;;14.35;;
38843;SDS011;24596;48.080;8.362;2023-02-11T08:53:59;28.23;;;13.02;;
38843;SDS011;24596;48.080;8.362;2023-02-11T08:56:25;26.23;;;12.70;;
38843;SDS011;24596;48.080;8.362;2023-02-11T08:58:51;28.85;;;14.38;;
38843;SDS011;24596;48.080;8.362;2023-02-11T09:01:17;25.02;;;12.48;;
38843;SDS011;24596;48.080;8.362;2023-02-11T09:03:43;29.52;;;13.52;;
38843;SDS011;24596;48.080;8.362;2023-02-11T09:06:09;29.75;;;14.23;;
38843;SDS011;24596;48.080;8.362;2023-02-11T09:08:35;25.27;;;13.10;;
38843;SDS011;24596;48.080;8.362;2023-02-11T09:11:01;27.90;;;12.90;;
38843;SDS011;24596;48.080;8.362;2023-02-11T09:13:27;25.67;;;12.27;;
38843;SDS011;24596;48.080;8.362;2023-02-11T09:15:52;25.92;;;12.80;;
38843;SDS011;24596;48.080;8.362;2023-02-11T09:18:17;25.90;;;11.85;;
38843;SDS011;24596;48.080;8.362;2023-02-11T09:20:42;23.95;;;12.38;;
38843;SDS011;24596;48.080;8.362;2023-02-11T09:23:08;25.48;;;12.68;;
38843;SDS011;24596;48.080;8.362;2023-02-11T09:25:33;24.92;;;12.23;;
38843;SDS011;24596;48.080;8.362;2023-02-11T09:27:58;22.75;;;12.05;;
38843;SDS011;24596;48.080;8.362;2023-02-11T09:30:24;22.08;;;12.02;;
38843;SDS011;24596;48.080;8.362;2023-02-11T09:32:49;22.42;;;11.45;;
38843;SDS011;24596;48.080;8.362;2023-02-11T09:35:15;21.70;;;11.20;;
38843;SDS011;24596;48.080;8.362;2023-02-11T09:37:40;22.10;;;10.55;;
38843;SDS011;24596;48.080;8.362;2023-02-11T09:40:05;21.65;;;11.40;;
38843;SDS011;24596;48.080;8.362;2023-02-11T09:42:38;19.33;;;9.45;;
38843;SDS011;24596;48.080;8.362;2023-02-11T09:45:04;22.02;;;11.05;;
38843;SDS011;24596;48.080;8.362;2023-02-11T09:47:35;19.13;;;9.35;;
38843;SDS011;24596;48.080;8.362;2023-02-11T09:50:03;20.33;;;9.18;;
38843;SDS011;24596;48.080;8.362;2023-02-11T09:55:21;19.33;;;9.02;;
38843;SDS011;24596;48.080;8.362;2023-02-11T09:57:47;22.10;;;10.63;;
38843;SDS011;24596;48.080;8.362;2023-02-11T10:00:17;24.08;;;10.93;;
38843;SDS011;24596;48.080;8.362;2023-02-11T10:02:53;23.70;;;10.48;;
38843;SDS011;24596;48.080;8.362;2023-02-11T10:05:24;20.63;;;11.15;;
38843;SDS011;24596;48.080;8.362;2023-02-11T10:15:28;23.77;;;10.60;;
38843;SDS011;24596;48.080;8.362;2023-02-11T10:18:09;21.65;;;10.43;;
38843;SDS011;24596;48.080;8.362;2023-02-11T10:23:09;21.10;;;10.30;;
38843;SDS011;24596;48.080;8.362;2023-02-11T10:25:38;17.80;;;8.50;;
38843;SDS011;24596;48.080;8.362;2023-02-11T10:28:20;14.80;;;8.35;;
38843;SDS011;24596;48.080;8.362;2023-02-11T10:33:30;18.42;;;9.20;;
38843;SDS011;24596;48.080;8.362;2023-02-11T10:35:58;19.58;;;9.55;;
38843;SDS011;24596;48.080;8.362;2023-02-11T10:38:23;21.92;;;10.90;;
38843;SDS011;24596;48.080;8.362;2023-02-11T10:40:48;22.38;;;10.27;;
38843;SDS011;24596;48.080;8.362;2023-02-11T10:43:15;18.70;;;10.05;;
38843;SDS011;24596;48.080;8.362;2023-02-11T10:45:44;22.75;;;10.43;;
38843;SDS011;24596;48.080;8.362;2023-02-11T10:48:55;19.35;;;9.77;;
38843;SDS011;24596;48.080;8.362;2023-02-11T10:51:38;18.95;;;9.50;;
38843;SDS011;24596;48.080;8.362;2023-02-11T10:53:45;22.58;;;9.68;;
38843;SDS011;24596;48.080;8.362;2023-02-11T10:56:11;18.23;;;10.02;;
38843;SDS011;24596;48.080;8.362;2023-02-11T10:58:45;19.70;;;10.02;;
38843;SDS011;24596;48.080;8.362;2023-02-11T11:01:17;19.25;;;9.15;;
38843;SDS011;24596;48.080;8.362;2023-02-11T11:03:47;19.80;;;8.90;;
38843;SDS011;24596;48.080;8.362;2023-02-11T11:06:13;16.20;;;7.85;;
38843;SDS011;24596;48.080;8.362;2023-02-11T11:11:06;11.38;;;5.25;;
38843;SDS011;24596;48.080;8.362;2023-02-11T11:21:40;10.10;;;4.25;;
38843;SDS011;24596;48.080;8.362;2023-02-11T11:24:14;9.30;;;4.45;;
38843;SDS011;24596;48.080;8.362;2023-02-11T11:26:41;8.00;;;4.32;;
38843;SDS011;24596;48.080;8.362;2023-02-11T11:29:18;8.38;;;3.97;;
38843;SDS011;24596;48.080;8.362;2023-02-11T11:31:52;10.30;;;4.30;;
38843;SDS011;24596;48.080;8.362;2023-02-11T11:36:47;10.00;;;4.30;;
38843;SDS011;24596;48.080;8.362;2023-02-11T11:39:20;9.98;;;5.03;;
38843;SDS011;24596;48.080;8.362;2023-02-11T11:41:50;8.57;;;4.28;;
38843;SDS011;24596;48.080;8.362;2023-02-11T11:44:35;13.00;;;4.85;;
38843;SDS011;24596;48.080;8.362;2023-02-11T11:54:57;13.37;;;5.03;;
38843;SDS011;24596;48.080;8.362;2023-02-11T11:57:29;9.10;;;3.95;;
38843;SDS011;24596;48.080;8.362;2023-02-11T11:59:58;12.25;;;4.38;;
38843;SDS011;24596;48.080;8.362;2023-02-11T12:18:21;12.70;;;4.65;;
38843;SDS011;24596;48.080;8.362;2023-02-11T12:36:40;8.38;;;3.83;;
38843;SDS011;24596;48.080;8.362;2023-02-11T12:52:43;10.98;;;4.22;;
38843;SDS011;24596;48.080;8.362;2023-02-11T12:55:33;10.10;;;4.30;;
38843;SDS011;24596;48.080;8.362;2023-02-11T12:58:01;8.75;;;4.20;;
38843;SDS011;24596;48.080;8.362;2023-02-11T13:00:39;9.05;;;4.15;;
38843;SDS011;24596;48.080;8.362;2023-02-11T13:03:10;8.82;;;4.15;;
38843;SDS011;24596;48.080;8.362;2023-02-11T13:05:39;8.10;;;3.40;;
38843;SDS011;24596;48.080;8.362;2023-02-11T13:08:13;8.93;;;3.70;;
38843;SDS011;24596;48.080;8.362;2023-02-11T13:10:40;7.90;;;3.58;;
38843;SDS011;24596;48.080;8.362;2023-02-11T13:16:03;5.70;;;2.47;;
38843;SDS011;24596;48.080;8.362;2023-02-11T13:21:59;3.97;;;1.50;;
38843;SDS011;24596;48.080;8.362;2023-02-11T13:31:41;4.20;;;1.48;;
38843;SDS011;24596;48.080;8.362;2023-02-11T13:34:52;5.63;;;1.75;;
38843;SDS011;24596;48.080;8.362;2023-02-11T13:36:55;5.43;;;2.00;;
38843;SDS011;24596;48.080;8.362;2023-02-11T13:39:21;5.30;;;1.75;;
38843;SDS011;24596;48.080;8.362;2023-02-11T13:41:46;8.30;;;2.15;;
38843;SDS011;24596;48.080;8.362;2023-02-11T13:49:29;8.45;;;2.17;;
38843;SDS011;24596;48.080;8.362;2023-02-11T13:51:55;2.85;;;1.45;;
38843;SDS011;24596;48.080;8.362;2023-02-11T13:54:26;3.95;;;1.45;;
38843;SDS011;24596;48.080;8.362;2023-02-11T14:02:03;6.83;;;1.40;;
38843;SDS011;24596;48.080;8.362;2023-02-11T14:16:02;4.43;;;1.58;;
38843;SDS011;24596;48.080;8.362;2023-02-11T14:21:44;3.67;;;1.65;;
38843;SDS011;24596;48.080;8.362;2023-02-11T14:23:44;4.95;;;1.50;;
38843;SDS011;24596;48.080;8.362;2023-02-11T14:28:47;3.20;;;1.45;;
38843;SDS011;24596;48.080;8.362;2023-02-11T14:31:25;4.97;;;2.07;;
38843;SDS011;24596;48.080;8.362;2023-02-11T14:33:55;7.63;;;1.90;;
38843;SDS011;24596;48.080;8.362;2023-02-11T14:39:14;8.63;;;4.03;;
38843;SDS011;24596;48.080;8.362;2023-02-11T14:41:42;9.05;;;4.18;;
38843;SDS011;24596;48.080;8.362;2023-02-11T14:44:15;8.73;;;4.28;;
38843;SDS011;24596;48.080;8.362;2023-02-11T14:46:48;8.48;;;4.43;;
38843;SDS011;24596;48.080;8.362;2023-02-11T14:51:46;6.90;;;2.97;;
38843;SDS011;24596;48.080;8.362;2023-02-11T14:54:13;12.13;;;3.10;;
38843;SDS011;24596;48.080;8.362;2023-02-11T14:56:40;8.10;;;2.97;;
38843;SDS011;24596;48.080;8.362;2023-02-11T14:59:16;7.18;;;3.08;;
38843;SDS011;24596;48.080;8.362;2023-02-11T15:01:43;8.15;;;3.72;;
38843;SDS011;24596;48.080;8.362;2023-02-11T15:04:21;8.70;;;4.07;;
38843;SDS011;24596;48.080;8.362;2023-02-11T15:06:46;9.40;;;3.50;;
38843;SDS011;24596;48.080;8.362;2023-02-11T15:09:19;9.93;;;3.45;;
38843;SDS011;24596;48.080;8.362;2023-02-11T15:11:48;8.02;;;4.03;;
38843;SDS011;24596;48.080;8.362;2023-02-11T15:16:50;9.25;;;5.32;;
38843;SDS011;24596;48.080;8.362;2023-02-11T15:19:23;11.60;;;4.63;;
38843;SDS011;24596;48.080;8.362;2023-02-11T15:21:50;10.57;;;5.80;;
38843;SDS011;24596;48.080;8.362;2023-02-11T15:26:44;10.73;;;5.63;;
38843;SDS011;24596;48.080;8.362;2023-02-11T15:29:16;14.85;;;6.68;;
38843;SDS011;24596;48.080;8.362;2023-02-11T15:31:41;12.05;;;7.75;;
38843;SDS011;24596;48.080;8.362;2023-02-11T15:34:07;11.32;;;7.35;;
38843;SDS011;24596;48.080;8.362;2023-02-11T15:36:36;9.38;;;5.90;;
38843;SDS011;24596;48.080;8.362;2023-02-11T15:39:19;9.98;;;4.75;;
38843;SDS011;24596;48.080;8.362;2023-02-11T15:41:52;7.28;;;3.53;;
38843;SDS011;24596;48.080;8.362;2023-02-11T15:44:27;7.40;;;3.15;;
38843;SDS011;24596;48.080;8.362;2023-02-11T15:46:52;8.05;;;3.92;;
38843;SDS011;24596;48.080;8.362;2023-02-11T15:49:18;9.32;;;4.75;;
38843;SDS011;24596;48.080;8.362;2023-02-11T15:51:45;9.30;;;4.75;;
38843;SDS011;24596;48.080;8.362;2023-02-11T15:54:29;10.02;;;4.78;;
38843;SDS011;24596;48.080;8.362;2023-02-11T15:57:02;12.32;;;6.25;;
38843;SDS011;24596;48.080;8.362;2023-02-11T15:59:35;11.13;;;5.68;;
38843;SDS011;24596;48.080;8.362;2023-02-11T16:02:06;13.88;;;6.30;;
38843;SDS011;24596;48.080;8.362;2023-02-11T16:04:32;12.75;;;7.07;;
38843;SDS011;24596;48.080;8.362;2023-02-11T16:06:57;19.33;;;9.68;;
38843;SDS011;24596;48.080;8.362;2023-02-11T16:12:22;10.77;;;5.13;;
38843;SDS011;24596;48.080;8.362;2023-02-11T16:14:39;13.20;;;4.68;;
38843;SDS011;24596;48.080;8.362;2023-02-11T16:19:35;11.38;;;4.78;;
38843;SDS011;24596;48.080;8.362;2023-02-11T16:22:07;11.25;;;4.75;;
38843;SDS011;24596;48.080;8.362;2023-02-11T16:24:34;10.63;;;4.93;;
38843;SDS011;24596;48.080;8.362;2023-02-11T16:27:23;9.82;;;4.90;;
38843;SDS011;24596;48.080;8.362;2023-02-11T16:29:46;14.07;;;6.65;;
38843;SDS011;24596;48.080;8.362;2023-02-11T16:34:37;13.13;;;5.60;;
38843;SDS011;24596;48.080;8.362;2023-02-11T16:37:03;13.00;;;5.22;;
38843;SDS011;24596;48.080;8.362;2023-02-11T16:39:29;15.90;;;6.50;;
38843;SDS011;24596;48.080;8.362;2023-02-11T16:41:54;13.40;;;5.35;;
38843;SDS011;24596;48.080;8.362;2023-02-11T16:44:20;10.30;;;4.85;;
38843;SDS011;24596;48.080;8.362;2023-02-11T16:46:45;12.90;;;6.03;;
38843;SDS011;24596;48.080;8.362;2023-02-11T16:49:21;19.20;;;9.80;;
38843;SDS011;24596;48.080;8.362;2023-02-11T16:51:52;28.60;;;11.80;;
38843;SDS011;24596;48.080;8.362;2023-02-11T16:54:20;15.25;;;7.85;;
38843;SDS011;24596;48.080;8.362;2023-02-11T16:56:45;17.67;;;7.90;;
38843;SDS011;24596;48.080;8.362;2023-02-11T16:59:10;16.05;;;7.03;;
38843;SDS011;24596;48.080;8.362;2023-02-11T17:01:41;13.68;;;6.13;;
38843;SDS011;24596;48.080;8.362;2023-02-11T17:04:16;15.18;;;6.65;;
38843;SDS011;24596;48.080;8.362;2023-02-11T17:06:41;15.75;;;6.32;;
38843;SDS011;24596;48.080;8.362;2023-02-11T17:09:08;14.02;;;7.10;;
38843;SDS011;24596;48.080;8.362;2023-02-11T17:11:33;13.13;;;6.68;;
38843;SDS011;24596;48.080;8.362;2023-02-11T17:13:58;14.52;;;7.30;;
38843;SDS011;24596;48.080;8.362;2023-02-11T17:16:23;14.95;;;7.25;;
38843;SDS011;24596;48.080;8.362;2023-02-11T17:18:49;15.93;;;7.30;;
38843;SDS011;24596;48.080;8.362;2023-02-11T17:21:14;17.00;;;8.52;;
38843;SDS011;24596;48.080;8.362;2023-02-11T17:23:40;16.42;;;8.30;;
38843;SDS011;24596;48.080;8.362;2023-02-11T17:26:05;18.17;;;9.80;;
38843;SDS011;24596;48.080;8.362;2023-02-11T17:28:30;13.73;;;7.30;;
38843;SDS011;24596;48.080;8.362;2023-02-11T17:30:56;17.00;;;8.32;;
38843;SDS011;24596;48.080;8.362;2023-02-11T17:33:21;19.42;;;9.50;;